Time;durP1;ratioP1;P1;durP2;ratioP2;P2;SDS_P1;SDS_P2;PMS_P1;PMS_P2;Temp;Humidity;BMP_temperature;BMP_pressure;BME280_temperature;BME280_humidity;BME280_pressure;Samples;Min_cycle;Max_cycle;Signal;HPM_P1;HPM_P2
2022/11/06 00:01:43;;;;;;;11.43;4.78;;;13.50;76.30;;;;;;7402004;19;20015;-82
2022/11/06 00:04:11;;;;;;;16.80;5.05;;;13.50;76.30;;;;;;7382361;19;20035;-82
2022/11/06 00:06:47;;;;;;;18.77;5.05;;;13.50;76.30;;;;;;7377263;19;20041;-82
2022/11/06 00:09:19;;;;;;;15.73;4.70;;;13.50;76.30;;;;;;7379471;19;20021;-83
2022/11/06 00:11:50;;;;;;;16.88;4.97;;;13.50;76.10;;;;;;7374992;19;20468;-83
2022/11/06 00:14:19;;;;;;;11.50;4.40;;;13.50;76.10;;;;;;7377866;19;20033;-83
2022/11/06 00:16:50;;;;;;;16.70;4.32;;;13.50;76.30;;;;;;7398333;19;20025;-83
2022/11/06 00:19:19;;;;;;;9.93;4.65;;;13.50;76.10;;;;;;7385906;19;20078;-83
2022/11/06 00:21:48;;;;;;;11.57;4.45;;;13.50;76.10;;;;;;7382795;19;20513;-83
2022/11/06 00:24:17;;;;;;;10.73;4.05;;;13.50;76.10;;;;;;7379634;19;20028;-84
2022/11/06 00:26:46;;;;;;;16.65;4.35;;;13.50;76.30;;;;;;7376794;19;20178;-84
2022/11/06 00:29:16;;;;;;;18.52;4.20;;;13.50;76.20;;;;;;7369258;19;20023;-83
2022/11/06 00:31:45;;;;;;;23.10;4.63;;;13.50;76.30;;;;;;7385081;19;20086;-84
2022/11/06 00:34:16;;;;;;;13.60;4.03;;;13.40;76.10;;;;;;7368962;19;20015;-84
2022/11/06 00:36:45;;;;;;;15.15;4.47;;;13.40;76.20;;;;;;7365837;19;20509;-84
2022/11/06 00:39:14;;;;;;;14.43;4.45;;;13.50;76.30;;;;;;7366534;19;20015;-84
2022/11/06 00:41:42;;;;;;;20.42;5.07;;;13.50;76.30;;;;;;7366192;19;20035;-85
2022/11/06 00:44:12;;;;;;;11.90;4.90;;;13.50;76.30;;;;;;7373648;19;20089;-84
2022/11/06 00:46:40;;;;;;;13.90;3.90;;;13.60;76.30;;;;;;7391253;19;20079;-84
2022/11/06 00:49:09;;;;;;;13.85;4.03;;;13.60;76.20;;;;;;7372411;19;20022;-85
2022/11/06 00:51:41;;;;;;;12.32;3.92;;;13.60;76.20;;;;;;7369529;19;20528;-84
2022/11/06 00:54:13;;;;;;;16.23;4.32;;;13.60;76.10;;;;;;7383360;19;20014;-84
2022/11/06 00:56:42;;;;;;;10.48;3.70;;;13.70;76.10;;;;;;7381575;19;20084;-84
2022/11/06 00:59:14;;;;;;;8.32;3.58;;;13.70;76.00;;;;;;7376060;19;20026;-83
2022/11/06 01:01:44;;;;;;;18.27;3.70;;;13.70;75.90;;;;;;7395757;19;20024;-82
2022/11/06 01:04:16;;;;;;;12.57;4.03;;;13.70;75.80;;;;;;7377901;19;20026;-83
2022/11/06 01:06:49;;;;;;;35.05;4.22;;;13.70;75.80;;;;;;7373064;19;20114;-83
2022/11/06 01:09:20;;;;;;;20.00;4.57;;;13.70;75.60;;;;;;7366691;19;20415;-83
2022/11/06 01:11:50;;;;;;;16.25;3.95;;;13.80;75.70;;;;;;7368550;19;20089;-83
2022/11/06 01:14:21;;;;;;;14.00;4.38;;;13.80;75.60;;;;;;7369856;19;20010;-83
2022/11/06 01:16:50;;;;;;;9.55;3.80;;;13.80;75.50;;;;;;7393242;19;20023;-83
2022/11/06 01:19:21;;;;;;;14.82;3.72;;;13.80;75.40;;;;;;7369953;19;20011;-83
2022/11/06 01:21:54;;;;;;;13.90;3.45;;;13.80;75.40;;;;;;7376676;19;20010;-82
2022/11/06 01:24:24;;;;;;;17.55;4.00;;;13.80;75.30;;;;;;7370083;19;20070;-83
2022/11/06 01:26:56;;;;;;;15.07;3.92;;;13.80;75.20;;;;;;7366407;19;20105;-82
2022/11/06 01:29:24;;;;;;;19.58;3.75;;;13.80;75.20;;;;;;7367708;19;20018;-82
2022/11/06 01:31:54;;;;;;;10.75;3.22;;;13.80;75.10;;;;;;7388991;19;20396;-82
2022/11/06 01:34:23;;;;;;;25.58;4.28;;;13.80;75.10;;;;;;7367679;19;20031;-83
2022/11/06 01:36:54;;;;;;;13.02;3.97;;;13.80;75.10;;;;;;7368653;19;20106;-82
2022/11/06 01:39:23;;;;;;;14.60;3.97;;;13.80;75.10;;;;;;7371667;19;20080;-83
2022/11/06 01:41:53;;;;;;;18.10;3.85;;;13.90;75.10;;;;;;7374257;19;20039;-82
2022/11/06 01:44:53;;;;;;;8.93;3.27;;;13.90;75.00;;;;;;7379527;19;20018;-82
2022/11/06 01:47:25;;;;;;;12.23;3.35;;;13.80;75.00;;;;;;7384811;19;20018;-82
2022/11/06 01:49:58;;;;;;;15.07;3.38;;;13.90;75.00;;;;;;7397428;19;20094;-82
2022/11/06 01:52:31;;;;;;;15.10;3.85;;;13.90;75.00;;;;;;7369594;19;20078;-82
2022/11/06 01:55:08;;;;;;;16.83;3.63;;;13.90;75.00;;;;;;7370843;19;20010;-81
2022/11/06 01:57:37;;;;;;;15.60;3.60;;;13.90;75.00;;;;;;7371683;19;20094;-81
2022/11/06 02:00:07;;;;;;;12.73;3.60;;;13.90;74.80;;;;;;7370148;19;20011;-82
2022/11/06 02:02:37;;;;;;;15.90;3.75;;;14.00;74.90;;;;;;7369124;19;20023;-83
2022/11/06 02:05:07;;;;;;;9.88;3.47;;;14.00;74.70;;;;;;7392740;19;20018;-83
2022/11/06 02:07:39;;;;;;;15.15;3.72;;;14.00;74.70;;;;;;7370808;19;20013;-83
2022/11/06 02:10:08;;;;;;;11.02;3.40;;;13.90;74.60;;;;;;7370535;19;20445;-83
2022/11/06 02:12:48;;;;;;;15.27;3.50;;;13.90;74.50;;;;;;7372416;19;20092;-83
2022/11/06 02:15:32;;;;;;;16.10;3.55;;;13.90;74.70;;;;;;7379195;19;20021;-83
2022/11/06 02:18:26;;;;;;;19.75;3.95;;;14.00;74.70;;;;;;7372799;19;20086;-82
2022/11/06 02:21:26;;;;;;;15.32;3.92;;;14.00;74.70;;;;;;7369499;19;20029;-83
2022/11/06 02:24:31;;;;;;;13.63;3.42;;;14.00;74.70;;;;;;7368282;19;20014;-83
2022/11/06 02:27:12;;;;;;;10.30;3.75;;;13.90;74.50;;;;;;7376786;19;20014;-84
2022/11/06 02:29:50;;;;;;;15.95;3.70;;;13.90;74.50;;;;;;7376080;19;20023;-84
2022/11/06 02:32:23;;;;;;;14.30;3.58;;;13.90;74.50;;;;;;7369182;19;20019;-82
2022/11/06 02:34:55;;;;;;;11.93;3.75;;;13.90;74.60;;;;;;7389063;19;20027;-83
2022/11/06 02:37:29;;;;;;;11.65;3.65;;;13.80;74.50;;;;;;7367346;19;20464;-83
2022/11/06 02:40:01;;;;;;;17.50;3.88;;;13.80;74.70;;;;;;7367295;19;20018;-83
2022/11/06 02:42:35;;;;;;;13.95;3.58;;;13.90;74.80;;;;;;7373991;19;20480;-82
2022/11/06 02:45:05;;;;;;;10.52;3.53;;;13.80;74.80;;;;;;7369086;19;20090;-82
2022/11/06 02:47:35;;;;;;;13.30;4.05;;;13.80;74.80;;;;;;7365447;19;20042;-82
2022/11/06 02:50:09;;;;;;;16.63;3.88;;;13.80;74.90;;;;;;7391189;19;20021;-82
2022/11/06 02:52:43;;;;;;;12.85;3.58;;;13.80;75.00;;;;;;7373219;19;20131;-82
2022/11/06 02:55:15;;;;;;;16.90;3.50;;;13.70;74.90;;;;;;7380947;19;20019;-82
2022/11/06 02:57:51;;;;;;;7.65;3.40;;;13.70;75.00;;;;;;7377724;19;20106;-82
2022/11/06 03:00:21;;;;;;;6.63;3.22;;;13.70;74.80;;;;;;7374288;19;20021;-82
2022/11/06 03:02:55;;;;;;;16.27;4.03;;;13.70;74.90;;;;;;7373863;19;20011;-82
2022/11/06 03:05:29;;;;;;;13.02;3.50;;;13.70;74.90;;;;;;7374746;19;20624;-81
2022/11/06 03:08:03;;;;;;;13.98;4.22;;;13.70;74.80;;;;;;7409200;19;20097;-82
2022/11/06 03:10:38;;;;;;;11.85;3.60;;;13.70;74.80;;;;;;7382372;19;20082;-82
2022/11/06 03:13:16;;;;;;;15.63;4.32;;;13.70;74.80;;;;;;7377198;19;20097;-81
2022/11/06 03:15:49;;;;;;;16.27;3.75;;;13.70;74.80;;;;;;7375238;19;20025;-82
2022/11/06 03:18:24;;;;;;;11.10;4.30;;;13.70;74.70;;;;;;7376576;19;20066;-82
2022/11/06 03:21:02;;;;;;;15.63;3.58;;;13.80;74.70;;;;;;7374543;19;20022;-82
2022/11/06 03:23:36;;;;;;;12.85;4.10;;;13.70;74.50;;;;;;7374375;19;20017;-81
2022/11/06 03:26:14;;;;;;;16.60;3.58;;;13.70;75.30;;;;;;7398588;19;20050;-81
2022/11/06 03:28:54;;;;;;;13.40;4.22;;;13.70;74.70;;;;;;7373751;19;20451;-82
2022/11/06 03:31:29;;;;;;;23.20;4.35;;;13.70;74.70;;;;;;7374602;19;20015;-83
2022/11/06 03:34:03;;;;;;;15.95;3.90;;;13.70;74.80;;;;;;7378452;19;20055;-82
2022/11/06 03:36:36;;;;;;;14.98;3.60;;;13.70;74.70;;;;;;7381029;19;20032;-83
2022/11/06 03:39:08;;;;;;;12.27;4.03;;;13.70;74.60;;;;;;7375783;19;20475;-82
2022/11/06 03:41:43;;;;;;;13.60;3.75;;;13.70;74.60;;;;;;7374405;19;20006;-83
2022/11/06 03:44:19;;;;;;;14.32;4.47;;;13.70;74.70;;;;;;7372844;19;20022;-82
2022/11/06 03:46:51;;;;;;;12.50;3.90;;;13.60;74.70;;;;;;7393301;19;20049;-83
2022/11/06 03:49:28;;;;;;;15.85;4.25;;;13.50;74.50;;;;;;7378424;19;20021;-83
2022/11/06 03:52:01;;;;;;;9.45;3.40;;;13.50;74.80;;;;;;7374501;19;20109;-82
2022/11/06 03:54:33;;;;;;;16.23;4.10;;;13.60;74.80;;;;;;7375077;19;20074;-83
2022/11/06 03:57:07;;;;;;;11.00;4.00;;;13.60;74.70;;;;;;7373467;19;20108;-83
2022/11/06 03:59:44;;;;;;;18.75;4.00;;;13.60;74.70;;;;;;7376533;19;20460;-82
2022/11/06 04:02:14;;;;;;;16.83;4.72;;;13.60;74.50;;;;;;7379157;19;20022;-82
2022/11/06 04:04:49;;;;;;;28.25;5.35;;;13.50;75.10;;;;;;7394492;19;20094;-83
2022/11/06 04:07:22;;;;;;;17.73;5.70;;;13.50;74.40;;;;;;7371437;19;20010;-83
2022/11/06 04:15:34;;;;;;;13.80;4.40;;;13.50;74.20;;;;;;7370074;19;20430;-82
2022/11/06 04:18:03;;;;;;;23.55;4.97;;;13.50;74.20;;;;;;7370857;19;20377;-83
2022/11/06 04:23:33;;;;;;;14.50;4.13;;;13.60;74.30;;;;;;7371535;19;20086;-82
2022/11/06 04:29:02;;;;;;;14.48;3.90;;;13.60;74.20;;;;;;7382434;19;20019;-83
2022/11/06 04:31:39;;;;;;;6.90;3.40;;;13.60;74.20;;;;;;7376423;19;20082;-83
2022/11/06 04:34:17;;;;;;;12.40;3.65;;;13.60;74.20;;;;;;7372658;19;20021;-83
2022/11/06 04:36:51;;;;;;;13.98;3.25;;;13.60;74.40;;;;;;7370505;19;20020;-82
2022/11/06 04:39:30;;;;;;;14.32;3.78;;;13.60;74.20;;;;;;7371001;19;20129;-82
2022/11/06 04:42:06;;;;;;;14.35;3.35;;;13.60;74.20;;;;;;7370870;19;20050;-82
2022/11/06 04:44:38;;;;;;;11.65;2.90;;;13.60;74.30;;;;;;7370170;19;20021;-81
2022/11/06 04:47:13;;;;;;;9.82;3.22;;;13.60;74.30;;;;;;7389199;19;20117;-82
2022/11/06 04:49:44;;;;;;;14.05;3.45;;;13.60;74.30;;;;;;7369239;19;20018;-82
2022/11/06 04:52:16;;;;;;;12.23;3.72;;;13.60;74.10;;;;;;7371662;19;20764;-82
2022/11/06 04:54:47;;;;;;;12.50;3.53;;;13.60;75.00;;;;;;7380573;19;20022;-82
2022/11/06 04:57:16;;;;;;;8.40;3.27;;;13.60;74.10;;;;;;7374174;19;20449;-83
2022/11/06 04:59:44;;;;;;;11.60;3.20;;;13.70;74.00;;;;;;7373785;19;20347;-82
2022/11/06 05:02:16;;;;;;;8.80;2.97;;;13.70;73.90;;;;;;7370833;19;20031;-82
2022/11/06 05:04:44;;;;;;;12.63;3.13;;;13.60;73.90;;;;;;7391341;19;20014;-83
2022/11/06 05:07:15;;;;;;;7.95;3.03;;;13.70;73.90;;;;;;7376741;19;20020;-83
2022/11/06 05:09:44;;;;;;;10.00;3.33;;;13.60;73.80;;;;;;7371703;19;20086;-83
2022/11/06 05:12:13;;;;;;;10.68;3.75;;;13.60;73.70;;;;;;7373269;19;20047;-82
2022/11/06 05:14:42;;;;;;;17.95;3.97;;;13.60;73.60;;;;;;7371352;19;20102;-82
2022/11/06 05:17:10;;;;;;;10.77;3.05;;;13.60;73.60;;;;;;7374910;19;20025;-82
2022/11/06 05:19:41;;;;;;;14.52;3.47;;;13.60;73.60;;;;;;7394722;19;20755;-83
2022/11/06 05:24:52;;;;;;;16.20;3.10;;;13.60;73.70;;;;;;7372420;19;20010;-83
2022/11/06 05:27:21;;;;;;;10.93;3.53;;;13.60;73.60;;;;;;7371980;19;20539;-83
2022/11/06 05:29:50;;;;;;;17.25;3.42;;;13.60;73.70;;;;;;7373086;19;20074;-83
2022/11/06 05:32:18;;;;;;;10.25;2.90;;;13.60;73.60;;;;;;7371979;19;20019;-82
2022/11/06 05:34:50;;;;;;;13.90;3.20;;;13.60;73.60;;;;;;7394524;19;20054;-82
2022/11/06 05:37:18;;;;;;;12.82;3.92;;;13.60;73.60;;;;;;7380355;19;20117;-83
2022/11/06 05:39:47;;;;;;;7.93;2.88;;;13.60;74.40;;;;;;7386558;19;20457;-82
2022/11/06 05:42:16;;;;;;;12.90;3.50;;;13.60;73.30;;;;;;7377215;19;20014;-82
2022/11/06 05:44:44;;;;;;;10.52;3.67;;;13.60;73.30;;;;;;7370824;19;20021;-82
2022/11/06 05:47:13;;;;;;;12.25;3.53;;;13.50;73.30;;;;;;7372852;19;20403;-81
2022/11/06 05:49:42;;;;;;;8.77;3.42;;;13.50;73.40;;;;;;7394468;19;20018;-82
2022/11/06 05:52:13;;;;;;;9.65;3.33;;;13.50;73.40;;;;;;7371701;19;20110;-82
2022/11/06 05:54:42;;;;;;;15.43;3.70;;;13.50;73.30;;;;;;7372256;19;20018;-81
2022/11/06 05:57:10;;;;;;;8.60;3.65;;;13.50;73.30;;;;;;7371614;19;20014;-81
2022/11/06 05:59:39;;;;;;;16.98;3.85;;;13.50;73.20;;;;;;7369315;19;20030;-81
2022/11/06 06:02:08;;;;;;;10.27;3.25;;;13.50;73.20;;;;;;7386274;19;20014;-79
2022/11/06 06:04:36;;;;;;;16.83;3.55;;;13.50;73.30;;;;;;7393218;19;20032;-81
2022/11/06 06:07:05;;;;;;;16.15;3.83;;;13.50;73.30;;;;;;7371483;19;20093;-80
2022/11/06 06:09:36;;;;;;;8.82;3.42;;;13.50;73.30;;;;;;7371783;19;20010;-81
2022/11/06 06:12:06;;;;;;;15.43;3.40;;;13.50;73.30;;;;;;7371810;19;20038;-81
2022/11/06 06:14:34;;;;;;;13.45;3.85;;;13.50;73.20;;;;;;7375680;19;20030;-82
2022/11/06 06:17:03;;;;;;;14.48;3.65;;;13.50;73.20;;;;;;7393466;19;20023;-82
2022/11/06 06:19:32;;;;;;;16.30;3.90;;;13.50;73.20;;;;;;7371134;19;20025;-82
2022/11/06 06:22:00;;;;;;;13.98;4.22;;;13.50;73.30;;;;;;7370098;19;20090;-82
2022/11/06 06:24:29;;;;;;;11.63;3.60;;;13.50;73.30;;;;;;7370245;19;20078;-82
2022/11/06 06:27:01;;;;;;;9.65;3.10;;;13.50;73.40;;;;;;7374558;19;20010;-82
2022/11/06 06:29:29;;;;;;;16.55;3.72;;;13.50;73.40;;;;;;7377130;19;20377;-81
2022/11/06 06:31:58;;;;;;;9.93;3.28;;;13.50;73.30;;;;;;7396733;19;20607;-81
2022/11/06 06:34:27;;;;;;;7.63;3.10;;;13.50;73.30;;;;;;7376538;19;20022;-82
2022/11/06 06:36:56;;;;;;;8.48;3.05;;;13.50;73.30;;;;;;7378156;19;20031;-81
2022/11/06 06:39:25;;;;;;;17.80;3.42;;;13.50;73.30;;;;;;7381095;19;20089;-81
2022/11/06 06:41:53;;;;;;;8.25;3.00;;;13.50;73.30;;;;;;7385167;19;20026;-81
2022/11/06 06:44:25;;;;;;;13.32;3.28;;;13.50;73.40;;;;;;7376283;19;20074;-82
2022/11/06 06:46:53;;;;;;;18.60;4.00;;;13.40;73.20;;;;;;7395965;19;20544;-82
2022/11/06 06:49:22;;;;;;;10.63;3.17;;;13.50;73.20;;;;;;7375405;19;20015;-82
2022/11/06 06:51:51;;;;;;;16.10;3.00;;;13.50;73.30;;;;;;7377574;19;20017;-81
2022/11/06 06:54:20;;;;;;;9.38;3.00;;;13.50;73.30;;;;;;7376302;19;20383;-81
2022/11/06 06:56:50;;;;;;;7.10;3.00;;;13.50;73.30;;;;;;7374428;19;20015;-81
2022/11/06 06:59:19;;;;;;;12.20;2.88;;;13.40;73.10;;;;;;7376697;19;20085;-80
2022/11/06 07:01:50;;;;;;;14.93;3.35;;;13.40;73.10;;;;;;7397872;19;20085;-81
2022/11/06 07:04:19;;;;;;;11.55;3.08;;;13.40;73.20;;;;;;7375010;19;20010;-81
2022/11/06 07:06:47;;;;;;;17.45;3.60;;;13.50;73.30;;;;;;7384023;19;20063;-81
2022/11/06 07:09:16;;;;;;;16.20;3.72;;;13.50;73.20;;;;;;7380856;19;20063;-81
2022/11/06 07:11:45;;;;;;;13.18;3.40;;;13.50;73.10;;;;;;7376262;19;20022;-80
2022/11/06 07:14:14;;;;;;;19.70;3.97;;;13.50;73.10;;;;;;7376958;19;20018;-80
2022/11/06 07:16:42;;;;;;;15.00;3.75;;;13.50;73.00;;;;;;7394999;19;20113;-81
2022/11/06 07:19:15;;;;;;;13.40;3.72;;;13.50;73.00;;;;;;7375613;19;20408;-81
2022/11/06 07:21:44;;;;;;;12.88;3.30;;;13.50;73.00;;;;;;7375604;19;20010;-81
2022/11/06 07:24:12;;;;;;;11.57;3.80;;;13.50;73.00;;;;;;7374854;19;20032;-81
2022/11/06 07:26:41;;;;;;;13.23;3.42;;;13.50;73.00;;;;;;7375409;19;20025;-81
2022/11/06 07:29:10;;;;;;;17.23;4.13;;;13.50;72.80;;;;;;7375571;19;20503;-81
2022/11/06 07:31:39;;;;;;;11.10;3.30;;;13.50;72.70;;;;;;7394652;19;20022;-80
2022/11/06 07:34:07;;;;;;;11.52;3.85;;;13.50;72.70;;;;;;7380915;19;20018;-80
2022/11/06 07:36:39;;;;;;;19.17;4.10;;;13.50;72.80;;;;;;7372317;19;20329;-80
2022/11/06 07:39:08;;;;;;;16.65;4.55;;;13.50;72.80;;;;;;7373892;19;20105;-81
2022/11/06 07:41:36;;;;;;;10.65;3.40;;;13.50;72.70;;;;;;7376799;19;20021;-81
2022/11/06 07:44:06;;;;;;;18.08;3.92;;;13.50;72.70;;;;;;7396339;19;20111;-81
2022/11/06 07:46:35;;;;;;;17.23;4.55;;;13.50;72.70;;;;;;7373813;19;20033;-80
2022/11/06 07:49:03;;;;;;;14.88;4.10;;;13.50;72.60;;;;;;7373203;19;20018;-80
2022/11/06 07:51:33;;;;;;;19.02;3.90;;;13.50;72.60;;;;;;7373418;19;20446;-81
2022/11/06 07:54:05;;;;;;;15.65;3.55;;;13.50;72.60;;;;;;7374116;19;20105;-81
2022/11/06 07:56:33;;;;;;;10.27;3.22;;;13.50;72.50;;;;;;7374378;19;20388;-80
2022/11/06 07:59:02;;;;;;;11.95;3.90;;;13.50;72.30;;;;;;7400420;19;20527;-81
2022/11/06 08:01:31;;;;;;;15.40;3.55;;;13.60;72.50;;;;;;7382261;19;20437;-81
2022/11/06 08:03:59;;;;;;;17.08;3.45;;;13.60;72.60;;;;;;7374758;19;20089;-80
2022/11/06 08:06:28;;;;;;;10.13;3.30;;;13.60;72.40;;;;;;7374096;19;20094;-81
2022/11/06 08:08:57;;;;;;;16.98;3.58;;;13.60;72.20;;;;;;7372829;19;20679;-80
2022/11/06 08:11:29;;;;;;;12.50;3.42;;;13.60;72.20;;;;;;7376923;19;20508;-86
2022/11/06 08:13:57;;;;;;;17.00;3.17;;;13.60;72.20;;;;;;7397141;19;20018;-86
2022/11/06 08:16:26;;;;;;;14.40;3.88;;;13.60;71.90;;;;;;7375093;19;20090;-86
2022/11/06 08:18:55;;;;;;;13.10;3.25;;;13.60;72.00;;;;;;7376506;19;20036;-86
2022/11/06 08:21:24;;;;;;;12.52;3.63;;;13.70;72.50;;;;;;7383751;19;20019;-86
2022/11/06 08:23:52;;;;;;;18.05;4.18;;;13.60;72.70;;;;;;7378014;19;20098;-84
2022/11/06 08:55:43;;;;;;;17.90;4.73;;;13.50;76.40;;;;;;7421008;19;19979;-82
2022/11/06 10:28:01;;;;;;;23.63;7.03;;;13.60;79.30;;;;;;7415050;19;20280;-84
2022/11/06 10:55:08;;;;;;;16.38;5.90;;;13.60;79.70;;;;;;7304092;19;21205;-85
2022/11/06 10:57:42;;;;;;;16.33;6.68;;;13.50;79.70;;;;;;7397760;19;20019;-86
2022/11/06 11:00:14;;;;;;;20.27;5.97;;;13.50;79.40;;;;;;7400948;19;20085;-87
2022/11/06 11:02:48;;;;;;;22.95;6.38;;;13.60;79.60;;;;;;7365445;19;20765;-83
2022/11/06 11:05:19;;;;;;;14.60;6.05;;;13.60;79.60;;;;;;7389245;19;20012;-84
2022/11/06 11:07:49;;;;;;;;;;;13.60;79.60;;;;;;7394887;19;20031;-84
2022/11/06 11:10:38;;;;;;;13.40;5.45;;;13.60;79.80;;;;;;7383042;19;19991;-83
2022/11/06 11:13:08;;;;;;;21.60;7.82;;;13.60;79.80;;;;;;7410194;19;20010;-83
2022/11/06 11:15:45;;;;;;;284.52;12.95;;;13.60;79.70;;;;;;7387341;19;20018;-83
2022/11/06 11:20:50;;;;;;;20.10;6.45;;;13.50;79.90;;;;;;7349034;19;20014;-84
2022/11/06 11:23:22;;;;;;;23.10;7.53;;;13.50;80.00;;;;;;7380446;19;20467;-84
2022/11/06 11:25:55;;;;;;;20.38;6.38;;;13.60;80.20;;;;;;7380749;19;20015;-82
2022/11/06 11:28:29;;;;;;;24.27;6.85;;;13.60;80.20;;;;;;7380100;19;20105;-83
2022/11/06 11:31:08;;;;;;;25.30;8.50;;;13.60;80.20;;;;;;7406871;19;20018;-88
2022/11/06 11:33:38;;;;;;;435.88;20.63;;;13.60;80.20;;;;;;7383716;19;20383;-86
2022/11/06 11:36:08;;;;;;;37.05;6.97;;;13.60;80.10;;;;;;7382866;19;20031;-88
2022/11/06 11:38:39;;;;;;;23.90;7.97;;;13.60;80.40;;;;;;7387572;19;20022;-86
2022/11/06 11:41:15;;;;;;;53.47;7.30;;;13.60;80.60;;;;;;7380276;19;20011;-84
2022/11/06 11:46:24;;;;;;;24.60;8.07;;;13.60;80.60;;;;;;7417493;19;20019;-85
2022/11/06 11:48:54;;;;;;;18.00;6.33;;;13.60;80.70;;;;;;7381059;19;20053;-84
2022/11/06 11:51:44;;;;;;;21.43;6.30;;;13.70;80.20;;;;;;7376492;19;20030;-84
2022/11/06 11:54:22;;;;;;;19.90;6.57;;;13.70;80.40;;;;;;7376701;19;20259;-84
2022/11/06 11:56:56;;;;;;;21.30;6.70;;;13.70;80.30;;;;;;7381907;19;20014;-84
2022/11/06 11:59:29;;;;;;;23.58;6.88;;;13.70;80.10;;;;;;7380684;19;20051;-84
2022/11/06 12:02:01;;;;;;;24.05;7.13;;;13.80;80.00;;;;;;7377221;19;20010;-83
2022/11/06 12:04:32;;;;;;;15.15;5.95;;;13.80;80.00;;;;;;7376527;19;20043;-82
2022/11/06 12:07:04;;;;;;;20.75;6.43;;;13.80;79.80;;;;;;7399235;19;20022;-83
2022/11/06 12:09:36;;;;;;;24.20;6.47;;;13.80;79.70;;;;;;7376519;19;20106;-83
2022/11/06 12:12:22;;;;;;;19.27;6.43;;;13.80;79.70;;;;;;7376118;19;20084;-82
2022/11/06 12:15:07;;;;;;;11.85;5.13;;;13.80;79.70;;;;;;7376496;19;20013;-82
2022/11/06 12:17:38;;;;;;;17.33;5.53;;;13.80;79.70;;;;;;7377181;19;20098;-83
2022/11/06 12:20:15;;;;;;;21.08;5.05;;;13.80;79.20;;;;;;7374470;19;20113;-82
2022/11/06 12:22:47;;;;;;;16.95;5.50;;;13.70;79.20;;;;;;7382666;19;20042;-82
2022/11/06 12:25:20;;;;;;;18.15;5.82;;;13.80;79.40;;;;;;7387116;19;20501;-81
2022/11/06 12:27:55;;;;;;;18.23;6.03;;;13.80;79.40;;;;;;7397453;19;20473;-82
2022/11/06 12:30:24;;;;;;;16.25;5.80;;;13.70;79.40;;;;;;7375232;19;20060;-82
2022/11/06 12:33:02;;;;;;;17.10;5.78;;;13.70;79.40;;;;;;7375799;19;20041;-82
2022/11/06 12:35:32;;;;;;;18.73;5.70;;;13.70;79.20;;;;;;7373601;19;20105;-83
2022/11/06 12:38:07;;;;;;;20.35;6.53;;;13.60;79.10;;;;;;7371326;19;20529;-82
2022/11/06 12:40:41;;;;;;;21.10;7.05;;;13.70;79.50;;;;;;7371322;19;20008;-82
2022/11/06 12:43:27;;;;;;;20.35;6.40;;;13.60;79.50;;;;;;7395314;19;20022;-83
2022/11/06 12:46:14;;;;;;;17.00;6.65;;;13.60;79.70;;;;;;7370743;19;20018;-83
2022/11/06 12:49:04;;;;;;;24.27;6.22;;;13.70;79.70;;;;;;7381951;19;20063;-84
2022/11/06 12:51:40;;;;;;;20.38;6.13;;;13.70;79.90;;;;;;7379283;19;20014;-85
2022/11/06 12:54:26;;;;;;;17.83;6.57;;;13.70;79.70;;;;;;7380497;19;20030;-84
2022/11/06 12:57:04;;;;;;;17.92;7.20;;;13.70;79.70;;;;;;7377428;19;20019;-85
2022/11/06 12:59:48;;;;;;;20.83;7.10;;;13.80;79.80;;;;;;7375044;19;20497;-85
2022/11/06 13:02:31;;;;;;;19.63;7.65;;;13.80;80.00;;;;;;7375154;19;20011;-85
2022/11/06 13:05:07;;;;;;;20.45;7.35;;;13.80;80.10;;;;;;7371775;19;20021;-85
2022/11/06 13:08:15;;;;;;;19.02;7.10;;;13.80;80.10;;;;;;7374688;19;20008;-84
2022/11/06 13:11:01;;;;;;;21.38;7.53;;;13.90;80.30;;;;;;7376324;19;20098;-84
2022/11/06 13:13:44;;;;;;;22.25;7.20;;;13.90;80.40;;;;;;7384152;19;20026;-84
2022/11/06 13:16:23;;;;;;;23.58;8.00;;;14.00;80.40;;;;;;7405230;19;20022;-85
2022/11/06 13:18:57;;;;;;;16.65;7.05;;;14.10;80.30;;;;;;7374059;19;20014;-85
2022/11/06 13:21:35;;;;;;;14.60;6.93;;;14.10;80.00;;;;;;7373400;19;20021;-84
2022/11/06 13:24:12;;;;;;;19.17;7.03;;;14.10;80.00;;;;;;7373726;19;20090;-84
2022/11/06 13:26:47;;;;;;;15.52;7.13;;;14.10;79.80;;;;;;7377443;19;20022;-83
2022/11/06 13:29:19;;;;;;;17.35;7.35;;;14.20;80.00;;;;;;7373484;19;20014;-84
2022/11/06 13:31:55;;;;;;;23.38;7.75;;;14.20;79.90;;;;;;7375587;19;20441;-83
2022/11/06 13:34:28;;;;;;;23.10;8.23;;;14.20;79.90;;;;;;7373041;19;20036;-83
2022/11/06 13:36:57;;;;;;;17.10;6.70;;;14.10;79.60;;;;;;7392189;19;20037;-83
2022/11/06 13:39:31;;;;;;;20.38;7.43;;;14.10;79.40;;;;;;7373657;19;20086;-84
2022/11/06 13:42:01;;;;;;;21.80;7.15;;;14.10;79.60;;;;;;7370562;19;20105;-83
2022/11/06 13:44:32;;;;;;;18.20;7.97;;;14.10;79.30;;;;;;7372385;19;20505;-83
2022/11/06 13:47:10;;;;;;;23.35;7.43;;;14.00;79.40;;;;;;7372638;19;20098;-82
2022/11/06 13:49:47;;;;;;;13.70;7.85;;;14.00;79.20;;;;;;7376455;19;20125;-82
2022/11/06 13:52:23;;;;;;;15.93;7.78;;;13.90;79.50;;;;;;7379619;19;20019;-82
2022/11/06 13:55:09;;;;;;;19.83;7.20;;;13.90;79.70;;;;;;7396279;19;20022;-83
2022/11/06 13:57:58;;;;;;;26.67;8.63;;;14.00;80.20;;;;;;7374443;19;20090;-83
2022/11/06 14:00:38;;;;;;;19.63;8.13;;;14.00;80.20;;;;;;7372781;19;20089;-82
2022/11/06 14:03:40;;;;;;;20.80;8.32;;;14.00;80.30;;;;;;7373490;19;20015;-83
2022/11/06 14:06:16;;;;;;;21.25;8.45;;;14.00;80.40;;;;;;7372938;19;20034;-83
2022/11/06 14:08:47;;;;;;;23.75;7.95;;;14.10;80.30;;;;;;7371968;19;20023;-82
2022/11/06 14:11:19;;;;;;;22.55;7.43;;;14.10;80.20;;;;;;7370928;19;20023;-82
2022/11/06 14:14:01;;;;;;;24.00;8.30;;;14.10;80.20;;;;;;7370160;19;20330;-81
2022/11/06 14:16:32;;;;;;;18.00;7.72;;;14.10;80.20;;;;;;7374082;19;20030;-81
2022/11/06 14:19:09;;;;;;;21.00;7.00;;;14.10;80.10;;;;;;7392823;19;20465;-81
2022/11/06 14:21:51;;;;;;;16.75;6.43;;;14.10;80.10;;;;;;7371385;19;20095;-82
2022/11/06 14:24:37;;;;;;;;;;;14.10;80.10;;;;;;7373885;19;20058;-81
2022/11/06 14:27:09;;;;;;;22.23;6.90;;;14.20;80.20;;;;;;7372982;19;20786;-82
2022/11/06 14:30:00;;;;;;;23.48;6.45;;;14.10;79.70;;;;;;7371621;19;20022;-83
2022/11/06 14:32:41;;;;;;;20.73;7.22;;;14.10;80.10;;;;;;7370488;19;20022;-82
2022/11/06 14:35:50;;;;;;;18.85;7.00;;;14.10;80.20;;;;;;7372560;19;20011;-83
2022/11/06 14:38:48;;;;;;;22.50;6.28;;;14.10;80.20;;;;;;7372877;19;20015;-83
2022/11/06 14:41:55;;;;;;;18.95;6.68;;;14.10;80.20;;;;;;7369915;19;20018;-82
2022/11/06 14:44:41;;;;;;;18.77;6.57;;;14.00;80.40;;;;;;7369913;19;20044;-82
2022/11/06 14:47:21;;;;;;;19.50;6.47;;;14.00;80.40;;;;;;7374478;19;20081;-83
2022/11/06 14:49:59;;;;;;;21.25;6.53;;;14.00;80.50;;;;;;7378860;19;20018;-82
2022/11/06 14:52:29;;;;;;;17.48;7.65;;;14.00;80.80;;;;;;7379984;19;20014;-82
2022/11/06 14:55:04;;;;;;;23.52;7.47;;;14.10;81.00;;;;;;7408480;19;20094;-82
2022/11/06 14:57:47;;;;;;;17.25;5.65;;;14.00;81.20;;;;;;7388116;19;20014;-82
2022/11/06 15:00:32;;;;;;;16.73;5.80;;;14.00;81.10;;;;;;7383580;19;20015;-82
2022/11/06 15:03:02;;;;;;;18.27;5.70;;;13.90;81.10;;;;;;7380743;19;20090;-82
2022/11/06 15:05:35;;;;;;;19.25;6.10;;;13.90;81.30;;;;;;7377842;19;20022;-82
2022/11/06 15:08:05;;;;;;;14.30;6.45;;;13.90;81.40;;;;;;7379920;19;20090;-82
2022/11/06 15:10:54;;;;;;;14.98;6.13;;;13.90;81.60;;;;;;7375724;19;20010;-82
2022/11/06 15:13:31;;;;;;;19.75;6.32;;;13.90;81.70;;;;;;7376543;19;20081;-81
2022/11/06 15:16:06;;;;;;;13.23;5.38;;;13.90;81.70;;;;;;7399693;19;20029;-81
2022/11/06 15:18:40;;;;;;;15.95;5.10;;;13.90;81.60;;;;;;7375897;19;20015;-82
2022/11/06 15:21:12;;;;;;;16.30;5.50;;;13.90;81.70;;;;;;7377693;19;20415;-83
2022/11/06 15:23:43;;;;;;;;;;;14.00;81.90;;;;;;7378919;19;20025;-82
2022/11/06 15:26:26;;;;;;;17.37;6.63;;;14.00;82.00;;;;;;7376997;19;19918;-82
2022/11/06 15:29:06;;;;;;;18.17;6.65;;;13.90;81.90;;;;;;7377407;19;20306;-82
2022/11/06 15:31:35;;;;;;;15.73;4.72;;;13.90;82.00;;;;;;7375603;19;20091;-82
2022/11/06 15:34:08;;;;;;;10.25;5.30;;;13.90;82.10;;;;;;7397951;19;20026;-82
2022/11/06 15:36:41;;;;;;;10.40;4.60;;;13.90;82.30;;;;;;7374670;19;20046;-82
2022/11/06 15:39:33;;;;;;;11.98;5.00;;;13.70;82.60;;;;;;7378426;19;20019;-81
2022/11/06 15:42:08;;;;;;;12.20;5.20;;;13.80;82.70;;;;;;7381080;19;20018;-81
2022/11/06 15:44:41;;;;;;;13.40;5.65;;;13.80;82.70;;;;;;7386902;19;20027;-80
2022/11/06 15:47:22;;;;;;;13.63;5.57;;;13.90;82.70;;;;;;7388449;19;20522;-82
2022/11/06 15:50:11;;;;;;;8.27;5.00;;;13.90;82.70;;;;;;7387425;19;20018;-82
2022/11/06 15:52:40;;;;;;;14.32;4.97;;;13.90;82.70;;;;;;7386286;19;20022;-81
2022/11/06 15:55:13;;;;;;;13.82;5.53;;;14.00;82.70;;;;;;7398612;19;20098;-82